Pagrindinis puslapis
METAR-TAF:

METAR-TAF

Oro uostai :

Singapūras, Singapūras

platuma: 01-22N, ilguma: 103-59E, Aukštis: 5 m

Dabartinis oras

Ataskaita buvo paskelbta 31 minutes, ne 23:30 UTC
Vėjas 2 kt nuo kintamojo kryptimis
Temperatūra 27°C
Drėgmė 89%
Slėgis 1011 hPa
Matomumas 10 km arba daugiau
Mažai debesys ne aukštis 1600 ft
Mažai debesys ne aukštis 1800 ft, aukštai iškilę kamuoliniai debesys.
Su prošvaistėmis ne aukštis 27000 ft

METAR: WSSS 052330Z VRB02KT 9999 FEW016 FEW018TCU BKN270 27/25 Q1011 NOSIG

Laikas: 08:01 (00:01 UTC)

Prognozė

Ataskaita buvo paskelbta 1 valandą ir 1 minutes, ne 23:00 UTC
Prognozė galioja nuo 06 metu 00 UTC su 07 metu 06 UTC
Vėjas 7 kt iš Šiaurės
Matomumas 10 km arba daugiau
Mažai debesys ne aukštis 1500 ft
Išsisklaidę debesys ne aukštis 2000 ft
Laikinai
nuo 06 metu 05 UTC su 06 metu 08 UTC
Matomumas: 3000 m
Mažai debesys ne aukštis 1200 ft, Liūtiniai kamuoliniai debesys.
Su prošvaistėmis ne aukštis 1500 ft
perkūnija, lietus

TAF: WSSS 052300Z 0600/0706 01007KT 9999 FEW015 SCT020 TEMPO 0605/0608 3000 TSRA FEW012CB BKN015

Orai ataskaitas ir orų prognozės (METAR, TAF).

turimą stotys yra geltonos ir raudonos taškus žemėlapyje.

Perkelti pele per norėdami pamatyti stoties vardą.

Tada spustelėkite, norėdami matyti oro stebėjimo ir prognozės.

Norėdami pakeisti žemėlapį: spustelėkite ant žalios mygtukų su juodo kryžiaus žemyn,; žalią mygtuką su brūkšneliu, jei norite nutolinti; arba žalių rodyklių gretimoms žemėlapius.


METAR-TAF: